Westwood Rainier — C6SI3 — position and weather

sailwx.info

Track history (hours):
 
Tides and Currents Weather Stations Pressure Air Temp Water Temp Dewpoint Dewpoint Depression Visibility Wind Speed Wind Dir Waves Ship Positions

Westwood Rainier

Last reported at 2015-Jul-29 18:00 UTC. Time now 2015-Jul-30 10:11 UTC.
Position N 53°54' W 160°24'.

Type: Cargo ship. MMSI: 311348993.

Wind from 340 at 12 knots

Waves 2.5 meters (8 feet), 2 second period

Barometer 1016.3 mb
Air temperature 13.0 ° C
Visibility: greater than 5.4 NM
Dewpoint 11.1 ° C
Water temperature 11.0 ° C

Date/timePositionNaut miles runAvg speedWind from/ knotsBaromVisibWave heightAir tempDewpointWater temp
2015-Jul-29 18:00N 53°54' W 160°24'   340 / 121016.3 5.4 2.513.011.111.0
2015-Jul-25 16:08N 48°31' W 126°39'712.8
2015-Jul-25 15:33N 48°31' W 126°28'1313.2
2015-Jul-25 14:33N 48°31' W 126°08'1413.9
2015-Jul-25 13:33N 48°31' W 125°47'1414.3
2015-Jul-25 12:33N 48°31' W 125°25'1414.2
2015-Jul-25 11:33N 48°31' W 125°04'1514.7
2015-Jul-25 10:34N 48°30' W 124°42'1615.7
2015-Jul-25 09:32N 48°24' W 124°19'1515.6
2015-Jul-25 08:33N 48°18' W 123°58'1515.2
2015-Jul-25 07:33N 48°16' W 123°35'1110.8
2015-Jul-25 06:33N 48°23' W 123°24'10 9.6
2015-Jul-25 05:33N 48°29' W 123°13'1413.6
2015-Jul-25 04:33N 48°43' W 123°13'1010.0
2015-Jul-25 03:33N 48°51' W 123°04'1414.4
2015-Jul-25 02:33N 49°01' W 123°20'1312.9
2015-Jul-25 01:33N 49°14' W 123°21'1110.6
2015-Jul-25 00:34N 49°18' W 123°06'1 0.6
2015-Jul-24 23:32N 49°17' W 123°06'0 0.0
2015-Jul-24 22:32N 49°17' W 123°06'0 0.0
2015-Jul-24 21:32N 49°17' W 123°06'0 0.0
2015-Jul-24 20:32N 49°17' W 123°06'0 0.0
2015-Jul-24 19:32N 49°17' W 123°06'0 0.0
2015-Jul-24 18:32N 49°17' W 123°06'0 0.0
2015-Jul-24 17:32N 49°17' W 123°06'0 0.0
2015-Jul-24 16:29N 49°17' W 123°06'0 0.0
2015-Jul-24 15:32N 49°17' W 123°06'0 0.0
2015-Jul-24 14:32N 49°17' W 123°06'0 0.0
2015-Jul-24 13:32N 49°17' W 123°06'0 0.0
2015-Jul-24 12:32N 49°17' W 123°06'0 0.0
2015-Jul-24 11:32N 49°17' W 123°06'0 0.0
2015-Jul-24 10:32N 49°17' W 123°06'0 0.0
2015-Jul-24 09:32N 49°17' W 123°06'0 0.0
2015-Jul-24 08:29N 49°17' W 123°06'0 0.0
2015-Jul-24 07:32N 49°17' W 123°06'0 0.0
2015-Jul-24 06:32N 49°17' W 123°06'0 0.0
2015-Jul-24 05:32N 49°17' W 123°06'0 0.0
2015-Jul-24 04:32N 49°17' W 123°06'0 0.0
2015-Jul-24 03:32N 49°17' W 123°06'0 0.0
2015-Jul-24 02:32N 49°17' W 123°06'0 0.0
2015-Jul-24 01:32N 49°17' W 123°06'4 4.4
2015-Jul-24 00:33N 49°19' W 123°12'1312.9
2015-Jul-23 23:33N 49°07' W 123°20'1514.7
2015-Jul-23 22:33N 48°55' W 123°07'1111.2
2015-Jul-23 21:33N 48°44' W 123°07'1111.1
2015-Jul-23 20:34N 48°33' W 123°12'1212.0
2015-Jul-23 19:34N 48°22' W 123°18'9 8.9
2015-Jul-23 18:33N 48°15' W 123°27'1313.5
2015-Jul-23 17:33N 48°13' W 123°46'1413.7
2015-Jul-23 16:33N 48°17' W 124°06'1414.1
2015-Jul-23 15:34N 48°23' W 124°25'1514.4
2015-Jul-23 14:33N 48°29' W 124°46'1313.3
2015-Jul-23 13:33N 48°23' W 125°04'1614.9
2015-Jul-23 12:27N 48°08' W 125°13'1414.5
2015-Jul-23 11:27N 47°54' W 125°19'1514.4
2015-Jul-23 10:25N 47°40' W 125°14'1614.6
2015-Jul-23 09:20N 47°24' W 125°11'1114.5
2015-Jul-23 08:33N 47°13' W 125°10'1414.3
2015-Jul-23 07:32N 46°58' W 125°07'1414.0
2015-Jul-23 06:33N 46°46' W 124°57'1414.3
2015-Jul-23 05:33N 46°36' W 124°43'1414.3
2015-Jul-23 04:33N 46°25' W 124°29'1413.9
2015-Jul-23 03:34N 46°16' W 124°15'7 7.4
2015-Jul-23 02:34N 46°15' W 124°04'1010.1
2015-Jul-23 01:33N 46°12' W 123°51'1010.5
2015-Jul-23 00:33N 46°15' W 123°36'9 9.4
2015-Jul-22 23:33N 46°10' W 123°25'1212.3
2015-Jul-22 22:34N 46°11' W 123°07'1312.9
2015-Jul-22 21:34N 46°03' W 122°53'1212.2
2015-Jul-22 20:33N 45°51' W 122°47'1212.4
2015-Jul-22 19:33N 45°39' W 122°45'1 0.8
2015-Jul-22 18:33N 45°38' W 122°45'0 0.0
2015-Jul-22 17:33N 45°38' W 122°45'0 0.0
2015-Jul-22 16:33N 45°38' W 122°45'0 0.0
2015-Jul-22 15:33N 45°38' W 122°45'0 0.0
2015-Jul-22 14:33N 45°38' W 122°45'0 0.0
2015-Jul-22 13:33N 45°38' W 122°45'0 0.0
2015-Jul-22 12:33N 45°38' W 122°45'0 0.0
2015-Jul-22 11:30N 45°38' W 122°45'0 0.0
2015-Jul-22 10:30N 45°38' W 122°45'0 0.0
2015-Jul-22 09:33N 45°38' W 122°45'0 0.0
2015-Jul-22 08:30N 45°38' W 122°45'0 0.0
2015-Jul-22 07:27N 45°38' W 122°45'0 0.0
2015-Jul-22 06:33N 45°38' W 122°45'0 0.0
2015-Jul-22 05:33N 45°38' W 122°45'0 0.0
2015-Jul-22 04:33N 45°38' W 122°45'0 0.0
2015-Jul-22 03:33N 45°38' W 122°45'0 0.0
2015-Jul-22 02:33N 45°38' W 122°45'0 0.0
2015-Jul-22 01:33N 45°38' W 122°45'0 0.0
2015-Jul-22 00:27N 45°38' W 122°45'0 0.0
2015-Jul-21 23:27N 45°38' W 122°45'0 0.0
2015-Jul-21 22:27N 45°38' W 122°45'0 0.0
2015-Jul-21 21:33N 45°38' W 122°45'0 0.0
2015-Jul-21 20:33N 45°38' W 122°45'0 0.0
2015-Jul-21 19:27N 45°38' W 122°45'0 0.0
2015-Jul-21 18:33N 45°38' W 122°45'0 0.0
2015-Jul-21 17:33N 45°38' W 122°45'0 0.0
2015-Jul-21 16:33N 45°38' W 122°45'0 0.0
2015-Jul-21 15:33N 45°38' W 122°45'0 0.0
2015-Jul-21 14:33N 45°38' W 122°45'0 0.0
2015-Jul-21 13:30N 45°38' W 122°45'0 0.0
2015-Jul-21 12:33N 45°38' W 122°45'0 0.0
2015-Jul-21 11:33N 45°38' W 122°45'0 0.0
2015-Jul-21 10:33N 45°38' W 122°45'0 0.0
2015-Jul-21 09:27N 45°38' W 122°45'0 0.0
2015-Jul-21 08:30N 45°38' W 122°45'0 0.0
2015-Jul-21 07:33N 45°38' W 122°45'0 0.0
2015-Jul-21 06:33N 45°38' W 122°45'0 0.0
2015-Jul-21 05:33N 45°38' W 122°45'0 0.0
2015-Jul-21 04:33N 45°38' W 122°45'8 7.6
2015-Jul-21 03:34N 45°46' W 122°46'1111.3
2015-Jul-21 02:33N 45°57' W 122°48'1010.0
2015-Jul-21 01:33N 46°06' W 122°56'3 2.7
2015-Jul-21 00:28N 46°08' W 122°59'0 0.0
2015-Jul-20 23:31N 46°08' W 122°59'0 0.0
2015-Jul-20 22:31N 46°08' W 122°59'0 0.0
2015-Jul-20 21:31N 46°08' W 122°59'0 0.0
2015-Jul-20 20:31N 46°08' W 122°59'0 0.0
2015-Jul-20 19:28N 46°08' W 122°59'0 0.0
2015-Jul-20 18:31N 46°08' W 122°59'0 0.0
2015-Jul-20 17:31N 46°08' W 122°59'0 0.0
2015-Jul-20 16:31N 46°08' W 122°59'0 0.0
2015-Jul-20 15:31N 46°08' W 122°59'0 0.0
2015-Jul-20 14:31N 46°08' W 122°59'0 0.0
2015-Jul-20 13:31N 46°08' W 122°59'0 0.0
2015-Jul-20 12:31N 46°08' W 122°59'0 0.0
2015-Jul-20 11:28N 46°08' W 122°59'0 0.0
2015-Jul-20 10:28N 46°08' W 122°59'0 0.0
2015-Jul-20 09:31N 46°08' W 122°59'0 0.0
2015-Jul-20 08:33N 46°08' W 122°59'0 0.0
2015-Jul-20 07:33N 46°08' W 122°59'0 0.0
2015-Jul-20 06:33N 46°08' W 122°59'0 0.0
2015-Jul-20 05:33N 46°08' W 122°59'0 0.0
2015-Jul-20 04:33N 46°08' W 122°59'0 0.0
2015-Jul-20 03:33N 46°08' W 122°59'0 0.0
2015-Jul-20 02:33N 46°08' W 122°59'0 0.0
2015-Jul-20 01:33N 46°08' W 122°59'0 0.0
2015-Jul-20 00:33N 46°08' W 122°59'0 0.0
2015-Jul-19 23:33N 46°08' W 122°59'0 0.0
2015-Jul-19 22:33N 46°08' W 122°59'0 0.0
2015-Jul-19 21:33N 46°08' W 122°59'0 0.0
2015-Jul-19 20:33N 46°08' W 122°59'0 0.0
2015-Jul-19 19:33N 46°08' W 122°59'0 0.0
2015-Jul-19 18:33N 46°08' W 122°59'  
Track history (hours):
 
Tides and Currents Weather Stations Pressure Air Temp Water Temp Dewpoint Dewpoint Depression Visibility Wind Speed Wind Dir Waves Ship Positions

Westwood Rainier

Last reported at 2015-Jul-29 18:00 UTC. Time now 2015-Jul-30 10:11 UTC.
Position N 53°54' W 160°24'.

Type: Cargo ship. MMSI: 311348993.

Wind from 340 at 12 knots

Waves 2.5 meters (8 feet), 2 second period

Barometer 1016.3 mb
Air temperature 13.0 ° C
Visibility: greater than 5.4 NM
Dewpoint 11.1 ° C
Water temperature 11.0 ° C

Date/timePositionNaut miles runAvg speedWind from/ knotsBaromVisibWave heightAir tempDewpointWater temp
2015-Jul-29 18:00N 53°54' W 160°24'   340 / 121016.3 5.4 2.513.011.111.0
2015-Jul-25 16:08N 48°31' W 126°39'712.8
2015-Jul-25 15:33N 48°31' W 126°28'1313.2
2015-Jul-25 14:33N 48°31' W 126°08'1413.9
2015-Jul-25 13:33N 48°31' W 125°47'1414.3
2015-Jul-25 12:33N 48°31' W 125°25'1414.2
2015-Jul-25 11:33N 48°31' W 125°04'1514.7
2015-Jul-25 10:34N 48°30' W 124°42'1615.7
2015-Jul-25 09:32N 48°24' W 124°19'1515.6
2015-Jul-25 08:33N 48°18' W 123°58'1515.2
2015-Jul-25 07:33N 48°16' W 123°35'1110.8
2015-Jul-25 06:33N 48°23' W 123°24'10 9.6
2015-Jul-25 05:33N 48°29' W 123°13'1413.6
2015-Jul-25 04:33N 48°43' W 123°13'1010.0
2015-Jul-25 03:33N 48°51' W 123°04'1414.4
2015-Jul-25 02:33N 49°01' W 123°20'1312.9
2015-Jul-25 01:33N 49°14' W 123°21'1110.6
2015-Jul-25 00:34N 49°18' W 123°06'1 0.6
2015-Jul-24 23:32N 49°17' W 123°06'0 0.0
2015-Jul-24 22:32N 49°17' W 123°06'0 0.0
2015-Jul-24 21:32N 49°17' W 123°06'0 0.0
2015-Jul-24 20:32N 49°17' W 123°06'0 0.0
2015-Jul-24 19:32N 49°17' W 123°06'0 0.0
2015-Jul-24 18:32N 49°17' W 123°06'0 0.0
2015-Jul-24 17:32N 49°17' W 123°06'0 0.0
2015-Jul-24 16:29N 49°17' W 123°06'0 0.0
2015-Jul-24 15:32N 49°17' W 123°06'0 0.0
2015-Jul-24 14:32N 49°17' W 123°06'0 0.0
2015-Jul-24 13:32N 49°17' W 123°06'0 0.0
2015-Jul-24 12:32N 49°17' W 123°06'0 0.0
2015-Jul-24 11:32N 49°17' W 123°06'0 0.0
2015-Jul-24 10:32N 49°17' W 123°06'0 0.0
2015-Jul-24 09:32N 49°17' W 123°06'0 0.0
2015-Jul-24 08:29N 49°17' W 123°06'0 0.0
2015-Jul-24 07:32N 49°17' W 123°06'0 0.0
2015-Jul-24 06:32N 49°17' W 123°06'0 0.0
2015-Jul-24 05:32N 49°17' W 123°06'0 0.0
2015-Jul-24 04:32N 49°17' W 123°06'0 0.0
2015-Jul-24 03:32N 49°17' W 123°06'0 0.0
2015-Jul-24 02:32N 49°17' W 123°06'0 0.0
2015-Jul-24 01:32N 49°17' W 123°06'4 4.4
2015-Jul-24 00:33N 49°19' W 123°12'1312.9
2015-Jul-23 23:33N 49°07' W 123°20'1514.7
2015-Jul-23 22:33N 48°55' W 123°07'1111.2
2015-Jul-23 21:33N 48°44' W 123°07'1111.1
2015-Jul-23 20:34N 48°33' W 123°12'1212.0
2015-Jul-23 19:34N 48°22' W 123°18'9 8.9
2015-Jul-23 18:33N 48°15' W 123°27'1313.5
2015-Jul-23 17:33N 48°13' W 123°46'1413.7
2015-Jul-23 16:33N 48°17' W 124°06'1414.1
2015-Jul-23 15:34N 48°23' W 124°25'1514.4
2015-Jul-23 14:33N 48°29' W 124°46'1313.3
2015-Jul-23 13:33N 48°23' W 125°04'1614.9
2015-Jul-23 12:27N 48°08' W 125°13'1414.5
2015-Jul-23 11:27N 47°54' W 125°19'1514.4
2015-Jul-23 10:25N 47°40' W 125°14'1614.6
2015-Jul-23 09:20N 47°24' W 125°11'1114.5
2015-Jul-23 08:33N 47°13' W 125°10'1414.3
2015-Jul-23 07:32N 46°58' W 125°07'1414.0
2015-Jul-23 06:33N 46°46' W 124°57'1414.3
2015-Jul-23 05:33N 46°36' W 124°43'1414.3
2015-Jul-23 04:33N 46°25' W 124°29'1413.9
2015-Jul-23 03:34N 46°16' W 124°15'7 7.4
2015-Jul-23 02:34N 46°15' W 124°04'1010.1
2015-Jul-23 01:33N 46°12' W 123°51'1010.5
2015-Jul-23 00:33N 46°15' W 123°36'9 9.4
2015-Jul-22 23:33N 46°10' W 123°25'1212.3
2015-Jul-22 22:34N 46°11' W 123°07'1312.9
2015-Jul-22 21:34N 46°03' W 122°53'1212.2
2015-Jul-22 20:33N 45°51' W 122°47'1212.4
2015-Jul-22 19:33N 45°39' W 122°45'1 0.8
2015-Jul-22 18:33N 45°38' W 122°45'0 0.0
2015-Jul-22 17:33N 45°38' W 122°45'0 0.0
2015-Jul-22 16:33N 45°38' W 122°45'0 0.0
2015-Jul-22 15:33N 45°38' W 122°45'0 0.0
2015-Jul-22 14:33N 45°38' W 122°45'0 0.0
2015-Jul-22 13:33N 45°38' W 122°45'0 0.0
2015-Jul-22 12:33N 45°38' W 122°45'0 0.0
2015-Jul-22 11:30N 45°38' W 122°45'0 0.0
2015-Jul-22 10:30N 45°38' W 122°45'0 0.0
2015-Jul-22 09:33N 45°38' W 122°45'0 0.0
2015-Jul-22 08:30N 45°38' W 122°45'0 0.0
2015-Jul-22 07:27N 45°38' W 122°45'0 0.0
2015-Jul-22 06:33N 45°38' W 122°45'0 0.0
2015-Jul-22 05:33N 45°38' W 122°45'0 0.0
2015-Jul-22 04:33N 45°38' W 122°45'0 0.0
2015-Jul-22 03:33N 45°38' W 122°45'0 0.0
2015-Jul-22 02:33N 45°38' W 122°45'0 0.0
2015-Jul-22 01:33N 45°38' W 122°45'0 0.0
2015-Jul-22 00:27N 45°38' W 122°45'0 0.0
2015-Jul-21 23:27N 45°38' W 122°45'0 0.0
2015-Jul-21 22:27N 45°38' W 122°45'0 0.0
2015-Jul-21 21:33N 45°38' W 122°45'0 0.0
2015-Jul-21 20:33N 45°38' W 122°45'0 0.0
2015-Jul-21 19:27N 45°38' W 122°45'0 0.0
2015-Jul-21 18:33N 45°38' W 122°45'0 0.0
2015-Jul-21 17:33N 45°38' W 122°45'0 0.0
2015-Jul-21 16:33N 45°38' W 122°45'0 0.0
2015-Jul-21 15:33N 45°38' W 122°45'0 0.0
2015-Jul-21 14:33N 45°38' W 122°45'0 0.0
2015-Jul-21 13:30N 45°38' W 122°45'0 0.0
2015-Jul-21 12:33N 45°38' W 122°45'0 0.0
2015-Jul-21 11:33N 45°38' W 122°45'0 0.0
2015-Jul-21 10:33N 45°38' W 122°45'0 0.0
2015-Jul-21 09:27N 45°38' W 122°45'0 0.0
2015-Jul-21 08:30N 45°38' W 122°45'0 0.0
2015-Jul-21 07:33N 45°38' W 122°45'0 0.0
2015-Jul-21 06:33N 45°38' W 122°45'0 0.0
2015-Jul-21 05:33N 45°38' W 122°45'0 0.0
2015-Jul-21 04:33N 45°38' W 122°45'8 7.6
2015-Jul-21 03:34N 45°46' W 122°46'1111.3
2015-Jul-21 02:33N 45°57' W 122°48'1010.0
2015-Jul-21 01:33N 46°06' W 122°56'3 2.7
2015-Jul-21 00:28N 46°08' W 122°59'0 0.0
2015-Jul-20 23:31N 46°08' W 122°59'0 0.0
2015-Jul-20 22:31N 46°08' W 122°59'0 0.0
2015-Jul-20 21:31N 46°08' W 122°59'0 0.0
2015-Jul-20 20:31N 46°08' W 122°59'0 0.0
2015-Jul-20 19:28N 46°08' W 122°59'0 0.0
2015-Jul-20 18:31N 46°08' W 122°59'0 0.0
2015-Jul-20 17:31N 46°08' W 122°59'0 0.0
2015-Jul-20 16:31N 46°08' W 122°59'0 0.0
2015-Jul-20 15:31N 46°08' W 122°59'0 0.0
2015-Jul-20 14:31N 46°08' W 122°59'0 0.0
2015-Jul-20 13:31N 46°08' W 122°59'0 0.0
2015-Jul-20 12:31N 46°08' W 122°59'0 0.0
2015-Jul-20 11:28N 46°08' W 122°59'0 0.0
2015-Jul-20 10:28N 46°08' W 122°59'0 0.0
2015-Jul-20 09:31N 46°08' W 122°59'0 0.0
2015-Jul-20 08:33N 46°08' W 122°59'0 0.0
2015-Jul-20 07:33N 46°08' W 122°59'0 0.0
2015-Jul-20 06:33N 46°08' W 122°59'0 0.0
2015-Jul-20 05:33N 46°08' W 122°59'0 0.0
2015-Jul-20 04:33N 46°08' W 122°59'0 0.0
2015-Jul-20 03:33N 46°08' W 122°59'0 0.0
2015-Jul-20 02:33N 46°08' W 122°59'0 0.0
2015-Jul-20 01:33N 46°08' W 122°59'0 0.0
2015-Jul-20 00:33N 46°08' W 122°59'0 0.0
2015-Jul-19 23:33N 46°08' W 122°59'0 0.0
2015-Jul-19 22:33N 46°08' W 122°59'0 0.0
2015-Jul-19 21:33N 46°08' W 122°59'0 0.0
2015-Jul-19 20:33N 46°08' W 122°59'0 0.0
2015-Jul-19 19:33N 46°08' W 122°59'0 0.0
2015-Jul-19 18:33N 46°08' W 122°59'  

Dump ship's entire track history